Aurora — ZCDW9 — position and weather

sailwx.info

Track history (hours):
 
Tides and Currents Weather Stations Pressure Air Temp Water Temp Dewpoint Dewpoint Depression Visibility Wind Speed Wind Dir Waves Ship Positions

Aurora (Bermuda)

Last reported at 2018-Jul-22 07:00 UTC. Time now 2018-Jul-22 07:02 UTC.
Position N 48°35' W 005°19'.

Length 271 m; draft 8.3 m.

Type: Ship. MMSI: 310555970.

Date/timePositionNaut miles runAvg speedWind from/ knotsBaromVisibWave heightAir tempDewpointWater temp
2018-Jul-22 07:00N 48°35' W 005°19'816.2
2018-Jul-22 06:30N 48°41' W 005°11'816.5
2018-Jul-22 06:00N 48°46' W 005°01'4271.3
2018-Jul-22 06:00N 48°42' W 005°00'1123.3 260 / 61020.810.8 17.917.417.0
2018-Jul-22 05:30N 48°52' W 004°51'816.5
2018-Jul-22 05:00N 48°57' W 004°42'816.5
2018-Jul-22 04:30N 49°02' W 004°32'816.2
2018-Jul-22 04:00N 49°07' W 004°22'815.9
2018-Jul-22 03:30N 49°12' W 004°13'815.7
2018-Jul-22 03:00N 49°17' W 004°03'6392.7
2018-Jul-22 03:00N 49°18' W 003°54'4 8.4 240 / 81015.810.8 17.516.018.0
2018-Jul-22 02:30N 49°22' W 003°54'815.1
2018-Jul-22 02:00N 49°27' W 003°46'714.8
2018-Jul-22 01:30N 49°33' W 003°39'715.0
2018-Jul-22 01:00N 49°38' W 003°30'714.9
2018-Jul-22 00:30N 49°43' W 003°22'815.1
2018-Jul-22 00:00N 49°48' W 003°13'815.5
2018-Jul-21 23:30N 49°53' W 003°04'815.7
2018-Jul-21 23:00N 49°57' W 002°54'816.4
2018-Jul-21 22:30N 49°59' W 002°41'817.0
2018-Jul-21 22:00N 50°02' W 002°29'917.8
2018-Jul-21 21:30N 50°04' W 002°15'918.4
2018-Jul-21 21:00N 50°10' W 002°04'918.4
2018-Jul-21 20:30N 50°15' W 001°52'918.5
2018-Jul-21 20:00N 50°19' W 001°39'12758.6
2018-Jul-21 20:00N 50°12' W 001°54'2143.7 270 / 121016.310.8 16.614.721.0
2018-Jul-21 19:30N 50°24' W 001°26'918.0
2018-Jul-21 19:00N 50°28' W 001°14'917.5
2018-Jul-21 18:30N 50°32' W 001°01'816.5
2018-Jul-21 18:00N 50°40' W 000°58'10629.0
2018-Jul-21 18:00N 50°30' W 000°54'1531.3 250 / 171014.510.8 19.514.521.0
2018-Jul-21 17:30N 50°44' W 001°03'816.1
2018-Jul-21 17:00N 50°47' W 001°15'5 9.0
2018-Jul-21 16:30N 50°50' W 001°19'4 8.0
2018-Jul-21 16:00N 50°53' W 001°24'2 2.3
2018-Jul-21 15:21N 50°54' W 001°26'0 0.0
2018-Jul-21 15:00N 50°54' W 001°26'0 0.0
2018-Jul-21 14:24N 50°54' W 001°26'0 0.0
2018-Jul-21 13:57N 50°54' W 001°26'0 0.0
2018-Jul-21 13:27N 50°54' W 001°26'0 0.0
2018-Jul-21 13:00N 50°54' W 001°26'0 0.0
2018-Jul-21 12:30N 50°54' W 001°26'0 0.0
2018-Jul-21 11:57N 50°54' W 001°26'0 0.0
2018-Jul-21 11:30N 50°54' W 001°26'0 0.0
2018-Jul-21 11:00N 50°54' W 001°26'0 0.0
2018-Jul-21 10:27N 50°54' W 001°26'0 0.0
2018-Jul-21 10:00N 50°54' W 001°26'0 0.0
2018-Jul-21 09:30N 50°54' W 001°26'0 0.0
2018-Jul-21 09:00N 50°54' W 001°26'0 0.0
2018-Jul-21 08:30N 50°54' W 001°26'0 0.0
2018-Jul-21 08:00N 50°54' W 001°26'0 0.0
2018-Jul-21 07:30N 50°54' W 001°26'0 0.0
2018-Jul-21 07:00N 50°54' W 001°26'0 0.0
2018-Jul-21 06:30N 50°54' W 001°26'0 0.0
2018-Jul-21 06:00N 50°54' W 001°26'0 0.0
2018-Jul-21 05:30N 50°54' W 001°26'0 0.8
2018-Jul-21 05:00N 50°54' W 001°25'4 8.1
2018-Jul-21 04:30N 50°51' W 001°21'4 8.1
2018-Jul-21 04:00N 50°47' W 001°19'612.5
2018-Jul-21 03:30N 50°46' W 001°09'815.7
2018-Jul-21 03:00N 50°42' W 000°58'5 9.8
2018-Jul-21 02:30N 50°37' W 000°59'815.7
2018-Jul-21 02:00N 50°32' W 001°09'6396.1
2018-Jul-21 02:00N 50°30' W 001°18'2 4.7 070 / 81012.010.8 17.515.518.0
2018-Jul-21 01:30N 50°29' W 001°21'917.2
2018-Jul-21 01:00N 50°26' W 001°34'917.5
2018-Jul-21 00:31N 50°23' W 001°47'917.9
2018-Jul-21 00:00N 50°20' W 001°60'918.5
2018-Jul-20 23:30N 50°17' W 002°14'918.0
2018-Jul-20 23:00N 50°14' W 002°27'917.5
2018-Jul-20 22:30N 50°12' W 002°40'917.4
2018-Jul-20 22:00N 50°11' W 002°54'816.8
2018-Jul-20 21:31N 50°06' W 003°04'917.1
2018-Jul-20 21:01N 50°00' W 003°14'917.1
2018-Jul-20 20:30N 49°55' W 003°24'917.3
2018-Jul-20 20:01N 49°49' W 003°34'816.9
2018-Jul-20 19:31N 49°42' W 003°43'1018.6
2018-Jul-20 18:59N 49°35' W 003°53'2626.8
2018-Jul-20 18:00N 49°18' W 004°24'3 9.5 290 / 221015.210.8 18.515.018.0
2018-Jul-20 17:39N 49°20' W 004°27'1419.1
2018-Jul-20 16:55N 49°11' W 004°44'2219.7
2018-Jul-20 15:47N 48°57' W 005°11'919.6
2018-Jul-20 15:21N 48°54' W 005°23'719.8
2018-Jul-20 15:00N 48°49' W 005°31'7219.8
2018-Jul-20 11:21N 47°47' W 006°25'920.0
2018-Jul-20 10:55N 47°39' W 006°31'920.0
2018-Jul-20 10:29N 47°31' W 006°37'9421.0
2018-Jul-20 06:00N 46°06' W 007°36'12120.2 340 / 151019.810.8 18.515.620.0
2018-Jul-20 00:00N 44°18' W 008°54'13222.0 360 / 141020.510.8 19.216.820.0
2018-Jul-19 18:00N 42°12' W 009°48'10818.0 340 / 351018.010.8 18.715.918.0
2018-Jul-19 12:00N 40°24' W 009°48'4129.3 300 / 251018.010.8 19.918.319.0
2018-Jul-19 10:35N 39°43' W 009°52'420.8
2018-Jul-19 10:23N 39°39' W 009°52'1121.2
2018-Jul-19 09:52N 39°28' W 009°52'820.9
2018-Jul-19 09:28N 39°20' W 009°52'1020.7
2018-Jul-19 09:00N 39°10' W 009°53'1020.9
2018-Jul-19 08:30N 38°59' W 009°51'1020.7
2018-Jul-19 08:00N 38°49' W 009°51'1020.8
2018-Jul-19 07:30N 38°39' W 009°50'1020.9
2018-Jul-19 07:00N 38°29' W 009°47'11702.0
2018-Jul-19 07:00N 38°18' W 009°42'2 3.3 320 / 201017.310.8 19.415.415.0
2018-Jul-19 06:30N 38°18' W 009°44'1020.8
2018-Jul-19 06:00N 38°08' W 009°40'1020.8
2018-Jul-19 05:30N 37°58' W 009°36'1020.9
2018-Jul-19 05:00N 37°49' W 009°32'1120.8
2018-Jul-19 04:30N 37°38' W 009°31'1020.8
2018-Jul-19 04:00N 37°28' W 009°29'1020.7
2018-Jul-19 03:30N 37°18' W 009°26'1020.8
2018-Jul-19 03:00N 37°08' W 009°23'1020.5
2018-Jul-19 02:30N 36°58' W 009°21'1019.9
2018-Jul-19 01:59N 36°49' W 009°14'1020.0
2018-Jul-19 01:28N 36°43' W 009°03'1020.9
2018-Jul-19 01:00N 36°40' W 008°52'1220.9
2018-Jul-19 00:27N 36°36' W 008°38'613.4
2018-Jul-19 00:00N 36°30' W 008°36'8634.4 310 / 301015.110.8 18.116.119.0
2018-Jul-18 23:59N 36°33' W 008°27'1020.6
2018-Jul-18 23:30N 36°30' W 008°15'1020.8
2018-Jul-18 23:00N 36°26' W 008°03'1021.0
2018-Jul-18 22:30N 36°23' W 007°51'1621.0
2018-Jul-18 21:44N 36°17' W 007°32'521.0
2018-Jul-18 21:30N 36°15' W 007°26'1120.9
2018-Jul-18 20:58N 36°11' W 007°13'1020.7
2018-Jul-18 20:30N 36°08' W 007°02'1427.4
2018-Jul-18 20:00N 36°00' W 006°48'5139.4 270 / 251013.310.8 21.119.721.0
2018-Jul-18 19:57N 36°05' W 006°49'1920.8
2018-Jul-18 19:04N 35°60' W 006°27'120.2
2018-Jul-18 19:00N 35°60' W 006°25'1320.0
2018-Jul-18 18:21N 35°57' W 006°09'1749.3
2018-Jul-18 18:00N 35°54' W 005°48'24 2.1 260 / 111014.010.8 21.018.420.0
2018-Jul-18 06:31N 35°54' W 005°19'0 0.0
2018-Jul-18 06:25N 35°54' W 005°19'0 0.0
2018-Jul-18 05:55N 35°54' W 005°19'0 0.0
2018-Jul-18 05:19N 35°54' W 005°19'0 0.0
2018-Jul-18 04:55N 35°54' W 005°19'1 1.5
2018-Jul-18 04:30N 35°54' W 005°18'2 4.0
2018-Jul-18 04:00N 35°55' W 005°17'510.3
2018-Jul-18 03:30N 35°56' W 005°10'4813.7
2018-Jul-18 00:00N 36°06' W 004°12'10818.0 360 / 81013.810.8 21.717.720.0
2018-Jul-17 18:00N 36°24' W 002°00'6013.8 030 / 201012.910.8 23.520.421.0
2018-Jul-17 13:39N 36°59' W 000°59'214.9
2018-Jul-17 13:30N 37°00' W 000°57'816.2
2018-Jul-17 13:00N 37°05' W 000°49'816.3
2018-Jul-17 12:30N 37°09' W 000°40'816.3
2018-Jul-17 12:00N 37°13' W 000°31'816.0
2018-Jul-17 11:30N 37°18' W 000°23'815.8
2018-Jul-17 11:00N 37°24' W 000°16'816.0
2018-Jul-17 10:30N 37°31' W 000°11'816.2
2018-Jul-17 10:00N 37°38' W 000°07'816.2
2018-Jul-17 09:30N 37°45' W 000°02'816.4
2018-Jul-17 09:00N 37°52' E 000°03'816.7
2018-Jul-17 08:31N 37°59' E 000°09'816.6
2018-Jul-17 08:00N 38°07' E 000°14'816.5
2018-Jul-17 07:30N 38°14' E 000°19'816.7
2018-Jul-17 07:00N 38°21' E 000°23'916.6
2018-Jul-17 06:27N 38°29' E 000°29'916.8
2018-Jul-17 05:54N 38°38' E 000°34'717.0
2018-Jul-17 05:30N 38°44' E 000°38'1117.2
2018-Jul-17 04:51N 38°54' E 000°44'617.4
2018-Jul-17 04:30N 38°59' E 000°47'917.4
2018-Jul-17 04:00N 39°07' E 000°52'8491.2
2018-Jul-17 04:00N 39°00' E 000°48'1734.1 120 / 51016.810.8 25.222.225.0
2018-Jul-17 03:30N 39°15' E 000°57'5716.2
2018-Jul-17 00:00N 40°06' E 001°30'4717.4 320 / 231016.410.8 26.620.426.0
2018-Jul-16 21:17N 40°49' E 001°55'516.4
2018-Jul-16 21:00N 40°53' E 001°58'816.2
2018-Jul-16 20:30N 41°01' E 002°02'816.1
2018-Jul-16 20:00N 41°08' E 002°06'816.0
2018-Jul-16 19:30N 41°15' E 002°11'510.9
2018-Jul-16 19:00N 41°21' E 002°10'0 0.9
2018-Jul-16 18:28N 41°21' E 002°10'0 0.0
2018-Jul-16 17:58N 41°21' E 002°10'0 0.0
2018-Jul-16 17:28N 41°21' E 002°10'0 0.0
2018-Jul-16 16:58N 41°21' E 002°10'0 0.0
2018-Jul-16 16:25N 41°21' E 002°10'0 0.0
2018-Jul-16 15:58N 41°21' E 002°10'0 0.0
2018-Jul-16 15:28N 41°21' E 002°10'0 0.0
2018-Jul-16 14:58N 41°21' E 002°10'0 0.0
2018-Jul-16 14:25N 41°21' E 002°10'0 0.0
2018-Jul-16 13:58N 41°21' E 002°10'0 0.0
2018-Jul-16 13:28N 41°21' E 002°10'0 0.0
2018-Jul-16 12:58N 41°21' E 002°10'0 0.0
2018-Jul-16 12:28N 41°21' E 002°10'0 0.0
2018-Jul-16 11:58N 41°21' E 002°10'0 0.0
2018-Jul-16 11:28N 41°21' E 002°10'0 0.0
2018-Jul-16 10:58N 41°21' E 002°10'0 0.0
2018-Jul-16 10:31N 41°21' E 002°10'0 0.0
2018-Jul-16 09:58N 41°21' E 002°10'0 0.0
2018-Jul-16 09:28N 41°21' E 002°10'0 0.0
2018-Jul-16 08:58N 41°21' E 002°10'0 0.0
2018-Jul-16 08:28N 41°21' E 002°10'0 0.0
2018-Jul-16 07:58N 41°21' E 002°10'0 0.0
2018-Jul-16 07:28N 41°21' E 002°10'0 0.0
2018-Jul-16 06:58N 41°21' E 002°10'0 0.0
2018-Jul-16 06:28N 41°21' E 002°10'0 0.0
2018-Jul-16 05:58N 41°21' E 002°10'0 0.0
2018-Jul-16 05:28N 41°21' E 002°10'1 1.4
2018-Jul-16 05:00N 41°21' E 002°10'3 6.6
2018-Jul-16 04:31N 41°17' E 002°11'510.5
2018-Jul-16 04:00N 41°17' E 002°18'715.2
2018-Jul-16 03:31N 41°19' E 002°27'815.2
2018-Jul-16 03:01N 41°23' E 002°36'4113.4
2018-Jul-16 00:00N 41°42' E 003°24'3020.4 180 / 131011.3 5.4 24.623.624.0
2018-Jul-15 22:31N 41°57' E 003°59'416.2
2018-Jul-15 22:15N 41°59' E 004°04'2016.1
2018-Jul-15 21:02N 42°10' E 004°26'016.2
2018-Jul-15 21:00N 42°10' E 004°27'916.4
2018-Jul-15 20:27N 42°15' E 004°37'2116.3
2018-Jul-15 19:09N 42°26' E 005°02'216.4
2018-Jul-15 19:00N 42°28' E 005°04'816.2
2018-Jul-15 18:30N 42°32' E 005°13'816.1
2018-Jul-15 18:00N 42°36' E 005°23'5350.5
2018-Jul-15 18:00N 42°36' E 005°30'610.4 190 / 141012.410.8 25.321.825.0
2018-Jul-15 17:25N 42°41' E 005°33'716.1
2018-Jul-15 17:00N 42°45' E 005°41'816.0
2018-Jul-15 16:30N 42°49' E 005°51'816.3
2018-Jul-15 16:01N 42°55' E 005°58'815.6
2018-Jul-15 15:28N 43°03' E 005°59'4 9.3
2018-Jul-15 15:00N 43°06' E 005°55'1 1.0
2018-Jul-15 14:23N 43°06' E 005°54'0 0.0
2018-Jul-15 13:59N 43°06' E 005°54'0 0.0
2018-Jul-15 13:29N 43°06' E 005°54'0 0.0
2018-Jul-15 12:59N 43°06' E 005°54'0 0.0
2018-Jul-15 12:23N 43°06' E 005°54'0 0.0
2018-Jul-15 11:59N 43°06' E 005°54'0 0.0
2018-Jul-15 11:29N 43°06' E 005°54'0 0.0
2018-Jul-15 10:59N 43°06' E 005°54'0 0.0
2018-Jul-15 10:29N 43°06' E 005°54'0 0.0
2018-Jul-15 09:59N 43°06' E 005°54'0 0.0
2018-Jul-15 09:29N 43°06' E 005°54'0 0.0
2018-Jul-15 08:59N 43°06' E 005°54'0 0.0
2018-Jul-15 08:29N 43°06' E 005°54'0 0.0
2018-Jul-15 07:53N 43°06' E 005°54'0 0.0
2018-Jul-15 07:26N 43°06' E 005°54'0 0.0
2018-Jul-15 06:56N 43°06' E 005°54'0 0.0
2018-Jul-15 06:29N 43°06' E 005°54'0 0.0
2018-Jul-15 05:59N 43°06' E 005°54'0 0.0
2018-Jul-15 05:29N 43°06' E 005°54'0 0.4
2018-Jul-15 05:01N 43°06' E 005°54'3 5.9
2018-Jul-15 04:30N 43°05' E 005°58'611.2
2018-Jul-15 03:59N 42°60' E 006°01'1417.4
2018-Jul-15 03:11N 42°56' E 006°20'418.0
2018-Jul-15 02:57N 42°56' E 006°25'1018.4
2018-Jul-15 02:26N 42°57' E 006°38'920.2
2018-Jul-15 02:00N 42°58' E 006°51'1019.9
2018-Jul-15 01:30N 42°59' E 007°04'1019.5
2018-Jul-15 01:01N 42°60' E 007°17'1019.3
2018-Jul-15 00:30N 43°01' E 007°30'1019.2
2018-Jul-15 00:00N 43°02' E 007°43'61174.9
2018-Jul-15 00:00N 43°00' E 007°36'1531.4 280 / 51013.710.8 24.822.325.0
2018-Jul-14 23:31N 43°04' E 007°56'919.0
2018-Jul-14 23:01N 43°05' E 008°09'918.9
2018-Jul-14 22:31N 43°06' E 008°22'1019.2
2018-Jul-14 22:01N 43°08' E 008°35'1019.3
2018-Jul-14 21:31N 43°09' E 008°48'1019.2
2018-Jul-14 21:01N 43°10' E 009°01'918.8
2018-Jul-14 20:31N 43°12' E 009°13'918.3
2018-Jul-14 20:00N 43°12' E 009°26'917.7
2018-Jul-14 19:31N 43°13' E 009°38'917.1
2018-Jul-14 19:01N 43°14' E 009°50'815.9
2018-Jul-14 18:31N 43°18' E 009°59'917.4
2018-Jul-14 18:01N 43°26' E 010°05'815.8
2018-Jul-14 17:31N 43°31' E 010°13'4 7.6
2018-Jul-14 17:01N 43°33' E 010°18'0 0.1
2018-Jul-14 16:26N 43°33' E 010°18'0 0.0
2018-Jul-14 15:56N 43°33' E 010°18'0 0.0
2018-Jul-14 15:26N 43°33' E 010°18'0 0.0
2018-Jul-14 14:56N 43°33' E 010°18'0 0.0
2018-Jul-14 14:26N 43°33' E 010°18'0 0.0
2018-Jul-14 13:26N 43°33' E 010°18'0 0.0
2018-Jul-14 12:55N 43°33' E 010°18'0 0.0
2018-Jul-14 12:25N 43°33' E 010°18'0 0.0
2018-Jul-14 11:56N 43°33' E 010°18'0 0.0
2018-Jul-14 11:26N 43°33' E 010°18'0 0.0
2018-Jul-14 10:56N 43°33' E 010°18'0 0.0
2018-Jul-14 10:26N 43°33' E 010°18'0 0.0
2018-Jul-14 09:55N 43°33' E 010°18'0 0.0
2018-Jul-14 09:26N 43°33' E 010°18'0 0.0
2018-Jul-14 08:56N 43°33' E 010°18'0 0.0
2018-Jul-14 08:26N 43°33' E 010°18'0 0.0
2018-Jul-14 07:50N 43°33' E 010°18'0 0.0
2018-Jul-14 07:26N 43°33' E 010°18'0 0.0
2018-Jul-14 06:56N 43°33' E 010°18'0 0.0
2018-Jul-14 06:25N 43°33' E 010°18'0 0.0
2018-Jul-14 05:56N 43°33' E 010°18'0 0.0
2018-Jul-14 05:25N 43°33' E 010°18'0 0.2
2018-Jul-14 05:00N 43°33' E 010°18'2 3.9
2018-Jul-14 04:30N 43°32' E 010°16'2 3.2
2018-Jul-14 04:00N 43°31' E 010°14'510.8
2018-Jul-14 03:30N 43°26' E 010°10'714.4
2018-Jul-14 03:00N 43°20' E 010°04'714.1
2018-Jul-14 02:31N 43°17' E 009°56'714.7
2018-Jul-14 02:00N 43°17' E 009°46'713.0
2018-Jul-14 01:30N 43°19' E 009°37'612.1
2018-Jul-14 01:00N 43°20' E 009°29'612.1
2018-Jul-14 00:30N 43°21' E 009°21'612.0
2018-Jul-14 00:00N 43°21' E 009°13'4230.2
2018-Jul-14 00:00N 43°18' E 009°12'714.3 010 / 41016.010.8 24.020.925.0
2018-Jul-13 23:30N 43°22' E 009°04'611.6
2018-Jul-13 23:00N 43°22' E 008°57'612.2
2018-Jul-13 22:31N 43°15' E 008°57'714.8
2018-Jul-13 22:00N 43°15' E 009°07'611.7
2018-Jul-13 21:30N 43°15' E 009°15'611.5
2018-Jul-13 21:00N 43°15' E 009°23'611.7
2018-Jul-13 20:30N 43°15' E 009°31'611.5
2018-Jul-13 20:00N 43°14' E 009°39'611.4
2018-Jul-13 19:30N 43°14' E 009°47'611.3
2018-Jul-13 19:00N 43°13' E 009°55'611.8
2018-Jul-13 18:30N 43°09' E 010°00'611.9
2018-Jul-13 18:00N 43°05' E 010°06'5318.9
2018-Jul-13 18:00N 43°00' E 010°06'4 8.5 210 / 201016.510.8 26.019.925.0
2018-Jul-13 17:30N 43°01' E 010°12'611.7
2018-Jul-13 17:00N 42°56' E 010°17'611.8
2018-Jul-13 16:30N 42°51' E 010°21'3 4.8
2018-Jul-13 15:58N 42°48' E 010°21'0 0.0
2018-Jul-13 14:55N 42°48' E 010°21'0 0.0
2018-Jul-13 14:28N 42°48' E 010°21'0 0.0
2018-Jul-13 13:31N 42°49' E 010°21'0 0.0
2018-Jul-13 12:58N 42°49' E 010°21'0 0.0
2018-Jul-13 12:04N 42°49' E 010°21'0 0.0
2018-Jul-13 11:58N 42°49' E 010°21'0 0.0
2018-Jul-13 11:28N 42°49' E 010°21'0 0.0
2018-Jul-13 10:55N 42°49' E 010°21'0 0.0
2018-Jul-13 10:28N 42°49' E 010°21'0 0.0
2018-Jul-13 09:46N 42°49' E 010°21'0 0.0
2018-Jul-13 08:43N 42°49' E 010°21'0 0.0
2018-Jul-13 08:25N 42°49' E 010°21'0 0.0
2018-Jul-13 07:55N 42°49' E 010°21'0 0.0
2018-Jul-13 07:25N 42°49' E 010°21'0 0.0
2018-Jul-13 06:55N 42°49' E 010°21'0 0.0
2018-Jul-13 06:16N 42°49' E 010°21'0 0.0
2018-Jul-13 05:58N 42°49' E 010°21'0 0.1
2018-Jul-13 05:30N 42°49' E 010°21'2 4.1
2018-Jul-13 05:00N 42°50' E 010°21'4 8.9
2018-Jul-13 04:30N 42°52' E 010°16'714.8
2018-Jul-13 04:00N 42°52' E 010°05'714.9
2018-Jul-13 03:30N 42°46' E 009°59'714.9
2018-Jul-13 03:00N 42°40' E 009°53'714.6
2018-Jul-13 02:30N 42°33' E 009°51'815.1
2018-Jul-13 02:00N 42°25' E 009°53'815.2
2018-Jul-13 01:30N 42°18' E 009°55'815.0
2018-Jul-13 01:00N 42°11' E 009°58'815.1
2018-Jul-13 00:30N 42°03' E 009°60'715.3
2018-Jul-13 00:00N 41°57' E 010°04'5285.6
2018-Jul-13 00:00N 42°00' E 010°00'1224.9 240 / 81015.810.8 23.921.225.0
2018-Jul-12 23:30N 41°50' E 010°08'1615.8
2018-Jul-12 22:29N 41°35' E 010°16'714.7
2018-Jul-12 22:00N 41°28' E 010°20'911.5
2018-Jul-12 21:15N 41°21' E 010°26'311.9
2018-Jul-12 21:00N 41°19' E 010°29'4213.8
2018-Jul-12 18:00N 40°48' E 011°06'2510.2 200 / 51015.610.8 25.619.725.0
2018-Jul-12 15:32N 40°31' E 011°30'112.5
2018-Jul-12 15:30N 40°31' E 011°30'612.2
2018-Jul-12 15:00N 40°26' E 011°36'4811.9
2018-Jul-12 11:00N 39°42' E 012°00'1910.3 290 / 21016.610.8 27.224.325.0
2018-Jul-12 09:11N 39°23' E 012°02'212.7
2018-Jul-12 09:00N 39°21' E 012°02'612.6
2018-Jul-12 08:31N 39°15' E 012°02'610.9
2018-Jul-12 08:00N 39°11' E 012°06'612.3
2018-Jul-12 07:29N 39°10' E 012°15'  
Track history (hours):
 
Tides and Currents Weather Stations Pressure Air Temp Water Temp Dewpoint Dewpoint Depression Visibility Wind Speed Wind Dir Waves Ship Positions

Aurora (Bermuda)

Last reported at 2018-Jul-22 07:00 UTC. Time now 2018-Jul-22 07:02 UTC.
Position N 48°35' W 005°19'.

Length 271 m; draft 8.3 m.

Type: Ship. MMSI: 310555970.

Date/timePositionNaut miles runAvg speedWind from/ knotsBaromVisibWave heightAir tempDewpointWater temp
2018-Jul-22 07:00N 48°35' W 005°19'816.2
2018-Jul-22 06:30N 48°41' W 005°11'816.5
2018-Jul-22 06:00N 48°46' W 005°01'4271.3
2018-Jul-22 06:00N 48°42' W 005°00'1123.3 260 / 61020.810.8 17.917.417.0
2018-Jul-22 05:30N 48°52' W 004°51'816.5
2018-Jul-22 05:00N 48°57' W 004°42'816.5
2018-Jul-22 04:30N 49°02' W 004°32'816.2
2018-Jul-22 04:00N 49°07' W 004°22'815.9
2018-Jul-22 03:30N 49°12' W 004°13'815.7
2018-Jul-22 03:00N 49°17' W 004°03'6392.7
2018-Jul-22 03:00N 49°18' W 003°54'4 8.4 240 / 81015.810.8 17.516.018.0
2018-Jul-22 02:30N 49°22' W 003°54'815.1
2018-Jul-22 02:00N 49°27' W 003°46'714.8
2018-Jul-22 01:30N 49°33' W 003°39'715.0
2018-Jul-22 01:00N 49°38' W 003°30'714.9
2018-Jul-22 00:30N 49°43' W 003°22'815.1
2018-Jul-22 00:00N 49°48' W 003°13'815.5
2018-Jul-21 23:30N 49°53' W 003°04'815.7
2018-Jul-21 23:00N 49°57' W 002°54'816.4
2018-Jul-21 22:30N 49°59' W 002°41'817.0
2018-Jul-21 22:00N 50°02' W 002°29'917.8
2018-Jul-21 21:30N 50°04' W 002°15'918.4
2018-Jul-21 21:00N 50°10' W 002°04'918.4
2018-Jul-21 20:30N 50°15' W 001°52'918.5
2018-Jul-21 20:00N 50°19' W 001°39'12758.6
2018-Jul-21 20:00N 50°12' W 001°54'2143.7 270 / 121016.310.8 16.614.721.0
2018-Jul-21 19:30N 50°24' W 001°26'918.0
2018-Jul-21 19:00N 50°28' W 001°14'917.5
2018-Jul-21 18:30N 50°32' W 001°01'816.5
2018-Jul-21 18:00N 50°40' W 000°58'10629.0
2018-Jul-21 18:00N 50°30' W 000°54'1531.3 250 / 171014.510.8 19.514.521.0
2018-Jul-21 17:30N 50°44' W 001°03'816.1
2018-Jul-21 17:00N 50°47' W 001°15'5 9.0
2018-Jul-21 16:30N 50°50' W 001°19'4 8.0
2018-Jul-21 16:00N 50°53' W 001°24'2 2.3
2018-Jul-21 15:21N 50°54' W 001°26'0 0.0
2018-Jul-21 15:00N 50°54' W 001°26'0 0.0
2018-Jul-21 14:24N 50°54' W 001°26'0 0.0
2018-Jul-21 13:57N 50°54' W 001°26'0 0.0
2018-Jul-21 13:27N 50°54' W 001°26'0 0.0
2018-Jul-21 13:00N 50°54' W 001°26'0 0.0
2018-Jul-21 12:30N 50°54' W 001°26'0 0.0
2018-Jul-21 11:57N 50°54' W 001°26'0 0.0
2018-Jul-21 11:30N 50°54' W 001°26'0 0.0
2018-Jul-21 11:00N 50°54' W 001°26'0 0.0
2018-Jul-21 10:27N 50°54' W 001°26'0 0.0
2018-Jul-21 10:00N 50°54' W 001°26'0 0.0
2018-Jul-21 09:30N 50°54' W 001°26'0 0.0
2018-Jul-21 09:00N 50°54' W 001°26'0 0.0
2018-Jul-21 08:30N 50°54' W 001°26'0 0.0
2018-Jul-21 08:00N 50°54' W 001°26'0 0.0
2018-Jul-21 07:30N 50°54' W 001°26'0 0.0
2018-Jul-21 07:00N 50°54' W 001°26'0 0.0
2018-Jul-21 06:30N 50°54' W 001°26'0 0.0
2018-Jul-21 06:00N 50°54' W 001°26'0 0.0
2018-Jul-21 05:30N 50°54' W 001°26'0 0.8
2018-Jul-21 05:00N 50°54' W 001°25'4 8.1
2018-Jul-21 04:30N 50°51' W 001°21'4 8.1
2018-Jul-21 04:00N 50°47' W 001°19'612.5
2018-Jul-21 03:30N 50°46' W 001°09'815.7
2018-Jul-21 03:00N 50°42' W 000°58'5 9.8
2018-Jul-21 02:30N 50°37' W 000°59'815.7
2018-Jul-21 02:00N 50°32' W 001°09'6396.1
2018-Jul-21 02:00N 50°30' W 001°18'2 4.7 070 / 81012.010.8 17.515.518.0
2018-Jul-21 01:30N 50°29' W 001°21'917.2
2018-Jul-21 01:00N 50°26' W 001°34'917.5
2018-Jul-21 00:31N 50°23' W 001°47'917.9
2018-Jul-21 00:00N 50°20' W 001°60'918.5
2018-Jul-20 23:30N 50°17' W 002°14'918.0
2018-Jul-20 23:00N 50°14' W 002°27'917.5
2018-Jul-20 22:30N 50°12' W 002°40'917.4
2018-Jul-20 22:00N 50°11' W 002°54'816.8
2018-Jul-20 21:31N 50°06' W 003°04'917.1
2018-Jul-20 21:01N 50°00' W 003°14'917.1
2018-Jul-20 20:30N 49°55' W 003°24'917.3
2018-Jul-20 20:01N 49°49' W 003°34'816.9
2018-Jul-20 19:31N 49°42' W 003°43'1018.6
2018-Jul-20 18:59N 49°35' W 003°53'2626.8
2018-Jul-20 18:00N 49°18' W 004°24'3 9.5 290 / 221015.210.8 18.515.018.0
2018-Jul-20 17:39N 49°20' W 004°27'1419.1
2018-Jul-20 16:55N 49°11' W 004°44'2219.7
2018-Jul-20 15:47N 48°57' W 005°11'919.6
2018-Jul-20 15:21N 48°54' W 005°23'719.8
2018-Jul-20 15:00N 48°49' W 005°31'7219.8
2018-Jul-20 11:21N 47°47' W 006°25'920.0
2018-Jul-20 10:55N 47°39' W 006°31'920.0
2018-Jul-20 10:29N 47°31' W 006°37'9421.0
2018-Jul-20 06:00N 46°06' W 007°36'12120.2 340 / 151019.810.8 18.515.620.0
2018-Jul-20 00:00N 44°18' W 008°54'13222.0 360 / 141020.510.8 19.216.820.0
2018-Jul-19 18:00N 42°12' W 009°48'10818.0 340 / 351018.010.8 18.715.918.0
2018-Jul-19 12:00N 40°24' W 009°48'4129.3 300 / 251018.010.8 19.918.319.0
2018-Jul-19 10:35N 39°43' W 009°52'420.8
2018-Jul-19 10:23N 39°39' W 009°52'1121.2
2018-Jul-19 09:52N 39°28' W 009°52'820.9
2018-Jul-19 09:28N 39°20' W 009°52'1020.7
2018-Jul-19 09:00N 39°10' W 009°53'1020.9
2018-Jul-19 08:30N 38°59' W 009°51'1020.7
2018-Jul-19 08:00N 38°49' W 009°51'1020.8
2018-Jul-19 07:30N 38°39' W 009°50'1020.9
2018-Jul-19 07:00N 38°29' W 009°47'11702.0
2018-Jul-19 07:00N 38°18' W 009°42'2 3.3 320 / 201017.310.8 19.415.415.0
2018-Jul-19 06:30N 38°18' W 009°44'1020.8
2018-Jul-19 06:00N 38°08' W 009°40'1020.8
2018-Jul-19 05:30N 37°58' W 009°36'1020.9
2018-Jul-19 05:00N 37°49' W 009°32'1120.8
2018-Jul-19 04:30N 37°38' W 009°31'1020.8
2018-Jul-19 04:00N 37°28' W 009°29'1020.7
2018-Jul-19 03:30N 37°18' W 009°26'1020.8
2018-Jul-19 03:00N 37°08' W 009°23'1020.5
2018-Jul-19 02:30N 36°58' W 009°21'1019.9
2018-Jul-19 01:59N 36°49' W 009°14'1020.0
2018-Jul-19 01:28N 36°43' W 009°03'1020.9
2018-Jul-19 01:00N 36°40' W 008°52'1220.9
2018-Jul-19 00:27N 36°36' W 008°38'613.4
2018-Jul-19 00:00N 36°30' W 008°36'8634.4 310 / 301015.110.8 18.116.119.0
2018-Jul-18 23:59N 36°33' W 008°27'1020.6
2018-Jul-18 23:30N 36°30' W 008°15'1020.8
2018-Jul-18 23:00N 36°26' W 008°03'1021.0
2018-Jul-18 22:30N 36°23' W 007°51'1621.0
2018-Jul-18 21:44N 36°17' W 007°32'521.0
2018-Jul-18 21:30N 36°15' W 007°26'1120.9
2018-Jul-18 20:58N 36°11' W 007°13'1020.7
2018-Jul-18 20:30N 36°08' W 007°02'1427.4
2018-Jul-18 20:00N 36°00' W 006°48'5139.4 270 / 251013.310.8 21.119.721.0
2018-Jul-18 19:57N 36°05' W 006°49'1920.8
2018-Jul-18 19:04N 35°60' W 006°27'120.2
2018-Jul-18 19:00N 35°60' W 006°25'1320.0
2018-Jul-18 18:21N 35°57' W 006°09'1749.3
2018-Jul-18 18:00N 35°54' W 005°48'24 2.1 260 / 111014.010.8 21.018.420.0
2018-Jul-18 06:31N 35°54' W 005°19'0 0.0
2018-Jul-18 06:25N 35°54' W 005°19'0 0.0
2018-Jul-18 05:55N 35°54' W 005°19'0 0.0
2018-Jul-18 05:19N 35°54' W 005°19'0 0.0
2018-Jul-18 04:55N 35°54' W 005°19'1 1.5
2018-Jul-18 04:30N 35°54' W 005°18'2 4.0
2018-Jul-18 04:00N 35°55' W 005°17'510.3
2018-Jul-18 03:30N 35°56' W 005°10'4813.7
2018-Jul-18 00:00N 36°06' W 004°12'10818.0 360 / 81013.810.8 21.717.720.0
2018-Jul-17 18:00N 36°24' W 002°00'6013.8 030 / 201012.910.8 23.520.421.0
2018-Jul-17 13:39N 36°59' W 000°59'214.9
2018-Jul-17 13:30N 37°00' W 000°57'816.2
2018-Jul-17 13:00N 37°05' W 000°49'816.3
2018-Jul-17 12:30N 37°09' W 000°40'816.3
2018-Jul-17 12:00N 37°13' W 000°31'816.0
2018-Jul-17 11:30N 37°18' W 000°23'815.8
2018-Jul-17 11:00N 37°24' W 000°16'816.0
2018-Jul-17 10:30N 37°31' W 000°11'816.2
2018-Jul-17 10:00N 37°38' W 000°07'816.2
2018-Jul-17 09:30N 37°45' W 000°02'816.4
2018-Jul-17 09:00N 37°52' E 000°03'816.7
2018-Jul-17 08:31N 37°59' E 000°09'816.6
2018-Jul-17 08:00N 38°07' E 000°14'816.5
2018-Jul-17 07:30N 38°14' E 000°19'816.7
2018-Jul-17 07:00N 38°21' E 000°23'916.6
2018-Jul-17 06:27N 38°29' E 000°29'916.8
2018-Jul-17 05:54N 38°38' E 000°34'717.0
2018-Jul-17 05:30N 38°44' E 000°38'1117.2
2018-Jul-17 04:51N 38°54' E 000°44'617.4
2018-Jul-17 04:30N 38°59' E 000°47'917.4
2018-Jul-17 04:00N 39°07' E 000°52'8491.2
2018-Jul-17 04:00N 39°00' E 000°48'1734.1 120 / 51016.810.8 25.222.225.0
2018-Jul-17 03:30N 39°15' E 000°57'5716.2
2018-Jul-17 00:00N 40°06' E 001°30'4717.4 320 / 231016.410.8 26.620.426.0
2018-Jul-16 21:17N 40°49' E 001°55'516.4
2018-Jul-16 21:00N 40°53' E 001°58'816.2
2018-Jul-16 20:30N 41°01' E 002°02'816.1
2018-Jul-16 20:00N 41°08' E 002°06'816.0
2018-Jul-16 19:30N 41°15' E 002°11'510.9
2018-Jul-16 19:00N 41°21' E 002°10'0 0.9
2018-Jul-16 18:28N 41°21' E 002°10'0 0.0
2018-Jul-16 17:58N 41°21' E 002°10'0 0.0
2018-Jul-16 17:28N 41°21' E 002°10'0 0.0
2018-Jul-16 16:58N 41°21' E 002°10'0 0.0
2018-Jul-16 16:25N 41°21' E 002°10'0 0.0
2018-Jul-16 15:58N 41°21' E 002°10'0 0.0
2018-Jul-16 15:28N 41°21' E 002°10'0 0.0
2018-Jul-16 14:58N 41°21' E 002°10'0 0.0
2018-Jul-16 14:25N 41°21' E 002°10'0 0.0
2018-Jul-16 13:58N 41°21' E 002°10'0 0.0
2018-Jul-16 13:28N 41°21' E 002°10'0 0.0
2018-Jul-16 12:58N 41°21' E 002°10'0 0.0
2018-Jul-16 12:28N 41°21' E 002°10'0 0.0
2018-Jul-16 11:58N 41°21' E 002°10'0 0.0
2018-Jul-16 11:28N 41°21' E 002°10'0 0.0
2018-Jul-16 10:58N 41°21' E 002°10'0 0.0
2018-Jul-16 10:31N 41°21' E 002°10'0 0.0
2018-Jul-16 09:58N 41°21' E 002°10'0 0.0
2018-Jul-16 09:28N 41°21' E 002°10'0 0.0
2018-Jul-16 08:58N 41°21' E 002°10'0 0.0
2018-Jul-16 08:28N 41°21' E 002°10'0 0.0
2018-Jul-16 07:58N 41°21' E 002°10'0 0.0
2018-Jul-16 07:28N 41°21' E 002°10'0 0.0
2018-Jul-16 06:58N 41°21' E 002°10'0 0.0
2018-Jul-16 06:28N 41°21' E 002°10'0 0.0
2018-Jul-16 05:58N 41°21' E 002°10'0 0.0
2018-Jul-16 05:28N 41°21' E 002°10'1 1.4
2018-Jul-16 05:00N 41°21' E 002°10'3 6.6
2018-Jul-16 04:31N 41°17' E 002°11'510.5
2018-Jul-16 04:00N 41°17' E 002°18'715.2
2018-Jul-16 03:31N 41°19' E 002°27'815.2
2018-Jul-16 03:01N 41°23' E 002°36'4113.4
2018-Jul-16 00:00N 41°42' E 003°24'3020.4 180 / 131011.3 5.4 24.623.624.0
2018-Jul-15 22:31N 41°57' E 003°59'416.2
2018-Jul-15 22:15N 41°59' E 004°04'2016.1
2018-Jul-15 21:02N 42°10' E 004°26'016.2
2018-Jul-15 21:00N 42°10' E 004°27'916.4
2018-Jul-15 20:27N 42°15' E 004°37'2116.3
2018-Jul-15 19:09N 42°26' E 005°02'216.4
2018-Jul-15 19:00N 42°28' E 005°04'816.2
2018-Jul-15 18:30N 42°32' E 005°13'816.1
2018-Jul-15 18:00N 42°36' E 005°23'5350.5
2018-Jul-15 18:00N 42°36' E 005°30'610.4 190 / 141012.410.8 25.321.825.0
2018-Jul-15 17:25N 42°41' E 005°33'716.1
2018-Jul-15 17:00N 42°45' E 005°41'816.0
2018-Jul-15 16:30N 42°49' E 005°51'816.3
2018-Jul-15 16:01N 42°55' E 005°58'815.6
2018-Jul-15 15:28N 43°03' E 005°59'4 9.3
2018-Jul-15 15:00N 43°06' E 005°55'1 1.0
2018-Jul-15 14:23N 43°06' E 005°54'0 0.0
2018-Jul-15 13:59N 43°06' E 005°54'0 0.0
2018-Jul-15 13:29N 43°06' E 005°54'0 0.0
2018-Jul-15 12:59N 43°06' E 005°54'0 0.0
2018-Jul-15 12:23N 43°06' E 005°54'0 0.0
2018-Jul-15 11:59N 43°06' E 005°54'0 0.0
2018-Jul-15 11:29N 43°06' E 005°54'0 0.0
2018-Jul-15 10:59N 43°06' E 005°54'0 0.0
2018-Jul-15 10:29N 43°06' E 005°54'0 0.0
2018-Jul-15 09:59N 43°06' E 005°54'0 0.0
2018-Jul-15 09:29N 43°06' E 005°54'0 0.0
2018-Jul-15 08:59N 43°06' E 005°54'0 0.0
2018-Jul-15 08:29N 43°06' E 005°54'0 0.0
2018-Jul-15 07:53N 43°06' E 005°54'0 0.0
2018-Jul-15 07:26N 43°06' E 005°54'0 0.0
2018-Jul-15 06:56N 43°06' E 005°54'0 0.0
2018-Jul-15 06:29N 43°06' E 005°54'0 0.0
2018-Jul-15 05:59N 43°06' E 005°54'0 0.0
2018-Jul-15 05:29N 43°06' E 005°54'0 0.4
2018-Jul-15 05:01N 43°06' E 005°54'3 5.9
2018-Jul-15 04:30N 43°05' E 005°58'611.2
2018-Jul-15 03:59N 42°60' E 006°01'1417.4
2018-Jul-15 03:11N 42°56' E 006°20'418.0
2018-Jul-15 02:57N 42°56' E 006°25'1018.4
2018-Jul-15 02:26N 42°57' E 006°38'920.2
2018-Jul-15 02:00N 42°58' E 006°51'1019.9
2018-Jul-15 01:30N 42°59' E 007°04'1019.5
2018-Jul-15 01:01N 42°60' E 007°17'1019.3
2018-Jul-15 00:30N 43°01' E 007°30'1019.2
2018-Jul-15 00:00N 43°02' E 007°43'61174.9
2018-Jul-15 00:00N 43°00' E 007°36'1531.4 280 / 51013.710.8 24.822.325.0
2018-Jul-14 23:31N 43°04' E 007°56'919.0
2018-Jul-14 23:01N 43°05' E 008°09'918.9
2018-Jul-14 22:31N 43°06' E 008°22'1019.2
2018-Jul-14 22:01N 43°08' E 008°35'1019.3
2018-Jul-14 21:31N 43°09' E 008°48'1019.2
2018-Jul-14 21:01N 43°10' E 009°01'918.8
2018-Jul-14 20:31N 43°12' E 009°13'918.3
2018-Jul-14 20:00N 43°12' E 009°26'917.7
2018-Jul-14 19:31N 43°13' E 009°38'917.1
2018-Jul-14 19:01N 43°14' E 009°50'815.9
2018-Jul-14 18:31N 43°18' E 009°59'917.4
2018-Jul-14 18:01N 43°26' E 010°05'815.8
2018-Jul-14 17:31N 43°31' E 010°13'4 7.6
2018-Jul-14 17:01N 43°33' E 010°18'0 0.1
2018-Jul-14 16:26N 43°33' E 010°18'0 0.0
2018-Jul-14 15:56N 43°33' E 010°18'0 0.0
2018-Jul-14 15:26N 43°33' E 010°18'0 0.0
2018-Jul-14 14:56N 43°33' E 010°18'0 0.0
2018-Jul-14 14:26N 43°33' E 010°18'0 0.0
2018-Jul-14 13:26N 43°33' E 010°18'0 0.0
2018-Jul-14 12:55N 43°33' E 010°18'0 0.0
2018-Jul-14 12:25N 43°33' E 010°18'0 0.0
2018-Jul-14 11:56N 43°33' E 010°18'0 0.0
2018-Jul-14 11:26N 43°33' E 010°18'0 0.0
2018-Jul-14 10:56N 43°33' E 010°18'0 0.0
2018-Jul-14 10:26N 43°33' E 010°18'0 0.0
2018-Jul-14 09:55N 43°33' E 010°18'0 0.0
2018-Jul-14 09:26N 43°33' E 010°18'0 0.0
2018-Jul-14 08:56N 43°33' E 010°18'0 0.0
2018-Jul-14 08:26N 43°33' E 010°18'0 0.0
2018-Jul-14 07:50N 43°33' E 010°18'0 0.0
2018-Jul-14 07:26N 43°33' E 010°18'0 0.0
2018-Jul-14 06:56N 43°33' E 010°18'0 0.0
2018-Jul-14 06:25N 43°33' E 010°18'0 0.0
2018-Jul-14 05:56N 43°33' E 010°18'0 0.0
2018-Jul-14 05:25N 43°33' E 010°18'0 0.2
2018-Jul-14 05:00N 43°33' E 010°18'2 3.9
2018-Jul-14 04:30N 43°32' E 010°16'2 3.2
2018-Jul-14 04:00N 43°31' E 010°14'510.8
2018-Jul-14 03:30N 43°26' E 010°10'714.4
2018-Jul-14 03:00N 43°20' E 010°04'714.1
2018-Jul-14 02:31N 43°17' E 009°56'714.7
2018-Jul-14 02:00N 43°17' E 009°46'713.0
2018-Jul-14 01:30N 43°19' E 009°37'612.1
2018-Jul-14 01:00N 43°20' E 009°29'612.1
2018-Jul-14 00:30N 43°21' E 009°21'612.0
2018-Jul-14 00:00N 43°21' E 009°13'4230.2
2018-Jul-14 00:00N 43°18' E 009°12'714.3 010 / 41016.010.8 24.020.925.0
2018-Jul-13 23:30N 43°22' E 009°04'611.6
2018-Jul-13 23:00N 43°22' E 008°57'612.2
2018-Jul-13 22:31N 43°15' E 008°57'714.8
2018-Jul-13 22:00N 43°15' E 009°07'611.7
2018-Jul-13 21:30N 43°15' E 009°15'611.5
2018-Jul-13 21:00N 43°15' E 009°23'611.7
2018-Jul-13 20:30N 43°15' E 009°31'611.5
2018-Jul-13 20:00N 43°14' E 009°39'611.4
2018-Jul-13 19:30N 43°14' E 009°47'611.3
2018-Jul-13 19:00N 43°13' E 009°55'611.8
2018-Jul-13 18:30N 43°09' E 010°00'611.9
2018-Jul-13 18:00N 43°05' E 010°06'5318.9
2018-Jul-13 18:00N 43°00' E 010°06'4 8.5 210 / 201016.510.8 26.019.925.0
2018-Jul-13 17:30N 43°01' E 010°12'611.7
2018-Jul-13 17:00N 42°56' E 010°17'611.8
2018-Jul-13 16:30N 42°51' E 010°21'3 4.8
2018-Jul-13 15:58N 42°48' E 010°21'0 0.0
2018-Jul-13 14:55N 42°48' E 010°21'0 0.0
2018-Jul-13 14:28N 42°48' E 010°21'0 0.0
2018-Jul-13 13:31N 42°49' E 010°21'0 0.0
2018-Jul-13 12:58N 42°49' E 010°21'0 0.0
2018-Jul-13 12:04N 42°49' E 010°21'0 0.0
2018-Jul-13 11:58N 42°49' E 010°21'0 0.0
2018-Jul-13 11:28N 42°49' E 010°21'0 0.0
2018-Jul-13 10:55N 42°49' E 010°21'0 0.0
2018-Jul-13 10:28N 42°49' E 010°21'0 0.0
2018-Jul-13 09:46N 42°49' E 010°21'0 0.0
2018-Jul-13 08:43N 42°49' E 010°21'0 0.0
2018-Jul-13 08:25N 42°49' E 010°21'0 0.0
2018-Jul-13 07:55N 42°49' E 010°21'0 0.0
2018-Jul-13 07:25N 42°49' E 010°21'0 0.0
2018-Jul-13 06:55N 42°49' E 010°21'0 0.0
2018-Jul-13 06:16N 42°49' E 010°21'0 0.0
2018-Jul-13 05:58N 42°49' E 010°21'0 0.1
2018-Jul-13 05:30N 42°49' E 010°21'2 4.1
2018-Jul-13 05:00N 42°50' E 010°21'4 8.9
2018-Jul-13 04:30N 42°52' E 010°16'714.8
2018-Jul-13 04:00N 42°52' E 010°05'714.9
2018-Jul-13 03:30N 42°46' E 009°59'714.9
2018-Jul-13 03:00N 42°40' E 009°53'714.6
2018-Jul-13 02:30N 42°33' E 009°51'815.1
2018-Jul-13 02:00N 42°25' E 009°53'815.2
2018-Jul-13 01:30N 42°18' E 009°55'815.0
2018-Jul-13 01:00N 42°11' E 009°58'815.1
2018-Jul-13 00:30N 42°03' E 009°60'715.3
2018-Jul-13 00:00N 41°57' E 010°04'5285.6
2018-Jul-13 00:00N 42°00' E 010°00'1224.9 240 / 81015.810.8 23.921.225.0
2018-Jul-12 23:30N 41°50' E 010°08'1615.8
2018-Jul-12 22:29N 41°35' E 010°16'714.7
2018-Jul-12 22:00N 41°28' E 010°20'911.5
2018-Jul-12 21:15N 41°21' E 010°26'311.9
2018-Jul-12 21:00N 41°19' E 010°29'4213.8
2018-Jul-12 18:00N 40°48' E 011°06'2510.2 200 / 51015.610.8 25.619.725.0
2018-Jul-12 15:32N 40°31' E 011°30'112.5
2018-Jul-12 15:30N 40°31' E 011°30'612.2
2018-Jul-12 15:00N 40°26' E 011°36'4811.9
2018-Jul-12 11:00N 39°42' E 012°00'1910.3 290 / 21016.610.8 27.224.325.0
2018-Jul-12 09:11N 39°23' E 012°02'212.7
2018-Jul-12 09:00N 39°21' E 012°02'612.6
2018-Jul-12 08:31N 39°15' E 012°02'610.9
2018-Jul-12 08:00N 39°11' E 012°06'612.3
2018-Jul-12 07:29N 39°10' E 012°15'  

Dump ship's entire track history